sensor_id;sensor_type;location;lat;lon;timestamp;P1;durP1;ratioP1;P2;durP2;ratioP2
23150;SDS011;11744;55.806;37.810;2022-09-02T07:24:11;2.95;;;0.90;;
23150;SDS011;11744;55.806;37.810;2022-09-02T07:26:41;5.65;;;1.10;;
23150;SDS011;11744;55.806;37.810;2022-09-02T07:29:11;2.08;;;0.85;;
23150;SDS011;11744;55.806;37.810;2022-09-02T07:31:41;2.10;;;0.98;;
23150;SDS011;11744;55.806;37.810;2022-09-02T07:34:12;3.85;;;1.00;;
23150;SDS011;11744;55.806;37.810;2022-09-02T07:36:41;4.50;;;1.00;;
23150;SDS011;11744;55.806;37.810;2022-09-02T07:39:12;1.75;;;1.05;;
23150;SDS011;11744;55.806;37.810;2022-09-02T07:41:43;3.85;;;0.98;;
23150;SDS011;11744;55.806;37.810;2022-09-02T07:44:14;3.45;;;1.12;;
23150;SDS011;11744;55.806;37.810;2022-09-02T07:46:45;1.10;;;1.02;;
23150;SDS011;11744;55.806;37.810;2022-09-02T07:49:15;2.08;;;1.32;;
23150;SDS011;11744;55.806;37.810;2022-09-02T07:51:46;2.95;;;1.00;;
23150;SDS011;11744;55.806;37.810;2022-09-02T07:54:16;1.92;;;0.90;;
23150;SDS011;11744;55.806;37.810;2022-09-02T07:56:47;6.37;;;1.10;;
23150;SDS011;11744;55.806;37.810;2022-09-02T07:59:17;1.98;;;0.82;;
23150;SDS011;11744;55.806;37.810;2022-09-02T08:01:47;1.98;;;0.90;;
23150;SDS011;11744;55.806;37.810;2022-09-02T08:04:18;1.57;;;1.30;;
23150;SDS011;11744;55.806;37.810;2022-09-02T08:06:50;1.45;;;0.93;;
23150;SDS011;11744;55.806;37.810;2022-09-02T08:09:20;1.20;;;0.90;;
23150;SDS011;11744;55.806;37.810;2022-09-02T08:11:50;4.45;;;0.90;;
23150;SDS011;11744;55.806;37.810;2022-09-02T08:14:22;2.92;;;0.90;;
23150;SDS011;11744;55.806;37.810;2022-09-02T08:16:52;2.25;;;0.82;;
23150;SDS011;11744;55.806;37.810;2022-09-02T08:19:22;2.25;;;1.00;;
23150;SDS011;11744;55.806;37.810;2022-09-02T08:21:53;2.37;;;1.10;;
23150;SDS011;11744;55.806;37.810;2022-09-02T08:24:23;1.07;;;0.80;;
23150;SDS011;11744;55.806;37.810;2022-09-02T08:26:52;3.30;;;0.95;;
23150;SDS011;11744;55.806;37.810;2022-09-02T08:29:23;2.52;;;0.80;;
23150;SDS011;11744;55.806;37.810;2022-09-02T08:31:52;3.08;;;0.95;;
23150;SDS011;11744;55.806;37.810;2022-09-02T08:34:21;2.30;;;0.80;;
23150;SDS011;11744;55.806;37.810;2022-09-02T08:36:51;2.47;;;0.93;;
23150;SDS011;11744;55.806;37.810;2022-09-02T08:39:20;1.47;;;0.75;;
23150;SDS011;11744;55.806;37.810;2022-09-02T08:42:04;3.37;;;1.00;;
23150;SDS011;11744;55.806;37.810;2022-09-02T08:44:35;1.22;;;0.82;;
23150;SDS011;11744;55.806;37.810;2022-09-02T08:47:05;0.78;;;0.70;;
23150;SDS011;11744;55.806;37.810;2022-09-02T08:49:38;1.50;;;0.72;;
23150;SDS011;11744;55.806;37.810;2022-09-02T08:52:09;2.05;;;0.80;;
23150;SDS011;11744;55.806;37.810;2022-09-02T08:54:54;3.75;;;1.00;;
23150;SDS011;11744;55.806;37.810;2022-09-02T08:57:25;1.67;;;1.00;;
23150;SDS011;11744;55.806;37.810;2022-09-02T08:59:59;4.65;;;1.20;;
23150;SDS011;11744;55.806;37.810;2022-09-02T09:02:33;1.25;;;0.95;;
23150;SDS011;11744;55.806;37.810;2022-09-02T09:11:01;3.92;;;1.30;;
23150;SDS011;11744;55.806;37.810;2022-09-02T09:16:26;2.15;;;1.22;;
23150;SDS011;11744;55.806;37.810;2022-09-02T09:18:58;2.47;;;1.37;;
23150;SDS011;11744;55.806;37.810;2022-09-02T09:21:31;1.00;;;0.93;;
23150;SDS011;11744;55.806;37.810;2022-09-02T09:24:01;1.92;;;1.47;;
23150;SDS011;11744;55.806;37.810;2022-09-02T09:26:32;2.47;;;1.50;;
23150;SDS011;11744;55.806;37.810;2022-09-02T09:29:03;2.87;;;1.20;;
23150;SDS011;11744;55.806;37.810;2022-09-02T09:31:34;2.37;;;1.25;;
23150;SDS011;11744;55.806;37.810;2022-09-02T09:34:05;2.15;;;1.30;;
23150;SDS011;11744;55.806;37.810;2022-09-02T09:39:17;2.07;;;1.10;;
23150;SDS011;11744;55.806;37.810;2022-09-02T09:41:52;2.12;;;1.00;;
23150;SDS011;11744;55.806;37.810;2022-09-02T09:47:06;0.80;;;0.80;;
23150;SDS011;11744;55.806;37.810;2022-09-02T09:49:36;1.57;;;1.42;;
23150;SDS011;11744;55.806;37.810;2022-09-02T09:52:07;0.90;;;0.90;;
23150;SDS011;11744;55.806;37.810;2022-09-02T09:54:36;1.87;;;1.07;;
23150;SDS011;11744;55.806;37.810;2022-09-02T09:57:12;1.05;;;0.80;;
23150;SDS011;11744;55.806;37.810;2022-09-02T09:59:44;1.32;;;0.95;;
23150;SDS011;11744;55.806;37.810;2022-09-02T10:02:25;2.15;;;0.95;;
23150;SDS011;11744;55.806;37.810;2022-09-02T10:04:51;2.03;;;0.90;;
23150;SDS011;11744;55.806;37.810;2022-09-02T10:07:37;1.98;;;1.12;;
23150;SDS011;11744;55.806;37.810;2022-09-02T18:15:09;8.70;;;4.55;;
23150;SDS011;11744;55.806;37.810;2022-09-02T18:17:45;8.65;;;5.30;;
